createdAt,value
2019-03-16T00:00:17.568Z,27.67
2019-03-16T00:02:48.573Z,22.55
2019-03-16T00:05:17.996Z,25.15
2019-03-16T00:07:47.424Z,27.25
2019-03-16T00:10:16.819Z,23.40
2019-03-16T00:12:46.200Z,28.95
2019-03-16T00:15:15.736Z,23.52
2019-03-16T00:17:45.105Z,22.40
2019-03-16T00:20:15.225Z,29.90
2019-03-16T00:22:44.591Z,25.97
2019-03-16T00:25:14.027Z,26.17
2019-03-16T00:27:43.397Z,25.75
2019-03-16T00:30:15.683Z,24.92
2019-03-16T00:32:45.485Z,21.30
2019-03-16T00:35:14.875Z,25.62
2019-03-16T00:37:44.304Z,28.98
2019-03-16T00:40:14.443Z,36.10
2019-03-16T00:42:43.923Z,27.17
2019-03-16T00:45:13.749Z,33.00
2019-03-16T00:47:43.115Z,26.80
2019-03-16T00:50:15.605Z,28.83
2019-03-16T00:52:44.948Z,27.27
2019-03-16T00:55:14.318Z,31.07
2019-03-16T00:57:44.145Z,26.48
2019-03-16T01:00:17.620Z,28.98
2019-03-16T01:02:48.475Z,33.15
2019-03-16T01:05:17.954Z,35.92
2019-03-16T01:07:47.433Z,31.60
2019-03-16T01:10:16.796Z,29.40
2019-03-16T01:12:46.256Z,19.57
2019-03-16T01:15:15.814Z,20.85
2019-03-16T01:17:45.266Z,17.62
2019-03-16T01:20:14.871Z,16.95
2019-03-16T01:22:45.811Z,24.57
2019-03-16T01:25:15.237Z,14.65
2019-03-16T01:27:44.681Z,21.43
2019-03-16T01:30:17.464Z,20.65
2019-03-16T01:35:18.598Z,22.17
2019-03-16T01:37:48.046Z,18.90
2019-03-16T01:40:19.036Z,24.20
2019-03-16T01:42:48.402Z,19.45
2019-03-16T01:45:17.803Z,19.35
2019-03-16T01:47:47.408Z,19.37
2019-03-16T01:50:16.818Z,18.90
2019-03-16T01:52:47.662Z,21.62
2019-03-16T01:55:17.108Z,20.75
2019-03-16T01:57:46.586Z,17.65
2019-03-16T02:00:16.372Z,15.55
2019-03-16T02:02:55.054Z,22.42
2019-03-16T02:05:16.948Z,15.32
2019-03-16T02:07:46.329Z,15.70
2019-03-16T02:10:15.805Z,18.80
2019-03-16T02:12:45.260Z,17.52
2019-03-16T02:15:14.872Z,17.82
2019-03-16T02:17:44.316Z,17.65
2019-03-16T02:20:13.724Z,15.53
2019-03-16T02:22:43.127Z,19.75
2019-03-16T02:25:12.599Z,19.05
2019-03-16T02:27:41.979Z,15.38
2019-03-16T02:30:12.475Z,19.67
2019-03-16T02:32:42.543Z,15.13
2019-03-16T02:35:12.342Z,17.30
2019-03-16T02:37:41.816Z,17.65
2019-03-16T02:40:11.922Z,17.40
2019-03-16T02:42:41.388Z,15.72
2019-03-16T02:45:11.283Z,18.82
2019-03-16T02:47:40.720Z,16.07
2019-03-16T02:50:12.435Z,15.80
2019-03-16T02:52:41.932Z,16.37
2019-03-16T02:55:13.175Z,24.23
2019-03-16T02:57:42.694Z,21.50
2019-03-16T03:00:18.763Z,25.05
2019-03-16T03:02:48.203Z,21.02
2019-03-16T03:05:17.558Z,23.98
2019-03-16T03:07:46.931Z,20.97
2019-03-16T03:10:16.795Z,18.60
2019-03-16T03:12:46.291Z,26.12
2019-03-16T03:15:15.914Z,19.30
2019-03-16T03:17:45.358Z,23.05
2019-03-16T03:20:28.835Z,15.10
2019-03-16T03:22:58.331Z,22.22
2019-03-16T03:25:27.684Z,21.30
2019-03-16T03:27:57.131Z,25.30
2019-03-16T03:30:26.506Z,27.95
2019-03-16T03:32:55.950Z,28.90
2019-03-16T03:35:29.207Z,28.95
2019-03-16T03:37:56.461Z,32.15
2019-03-16T03:40:25.869Z,38.83
2019-03-16T03:42:57.901Z,38.45
2019-03-16T03:45:27.263Z,39.85
2019-03-16T03:47:56.771Z,37.50
2019-03-16T03:50:26.421Z,39.05
2019-03-16T03:52:55.884Z,36.30
2019-03-16T03:55:25.469Z,37.48
2019-03-16T03:57:54.910Z,36.45
2019-03-16T04:00:24.685Z,36.80
2019-03-16T04:02:54.194Z,45.67
2019-03-16T04:05:23.569Z,42.40
2019-03-16T04:07:53.040Z,38.40
2019-03-16T04:10:22.394Z,42.43
2019-03-16T04:12:51.772Z,39.95
2019-03-16T04:15:21.508Z,38.20
2019-03-16T04:17:50.891Z,40.80
2019-03-16T04:20:20.421Z,47.53
2019-03-16T04:22:49.838Z,33.08
2019-03-16T04:25:19.352Z,37.65
2019-03-16T04:27:48.696Z,35.52
2019-03-16T04:30:18.060Z,43.75
2019-03-16T04:32:47.467Z,37.00
2019-03-16T04:35:16.838Z,39.45
2019-03-16T04:37:46.261Z,28.32
2019-03-16T04:40:15.627Z,29.98
2019-03-16T04:42:44.976Z,35.17
2019-03-16T04:45:14.408Z,40.00
2019-03-16T04:47:43.746Z,37.95
2019-03-16T04:50:13.540Z,46.13
2019-03-16T04:52:42.885Z,49.85
2019-03-16T04:55:12.536Z,47.80
2019-03-16T04:57:41.898Z,39.03
2019-03-16T05:00:14.942Z,46.75
2019-03-16T05:02:44.326Z,47.13
2019-03-16T05:05:13.878Z,49.88
2019-03-16T05:07:43.239Z,50.92
2019-03-16T05:10:13.234Z,41.02
2019-03-16T05:12:42.946Z,46.28
2019-03-16T05:15:12.341Z,51.15
2019-03-16T05:17:41.885Z,48.55
2019-03-16T05:20:12.055Z,52.38
2019-03-16T05:22:42.984Z,52.38
2019-03-16T05:25:12.736Z,51.10
2019-03-16T05:27:43.159Z,44.33
2019-03-16T05:30:13.885Z,53.55
2019-03-16T05:32:43.300Z,50.75
2019-03-16T05:35:12.762Z,50.40
2019-03-16T05:37:42.103Z,53.15
2019-03-16T05:40:11.915Z,57.40
2019-03-16T05:42:41.284Z,53.05
2019-03-16T05:45:11.052Z,54.25
2019-03-16T05:47:40.504Z,59.25
2019-03-16T05:50:14.916Z,62.23
2019-03-16T05:52:44.333Z,58.73
2019-03-16T05:55:13.893Z,58.17
2019-03-16T05:57:43.291Z,65.17
2019-03-16T06:00:14.744Z,56.77
2019-03-16T06:02:44.199Z,48.00
2019-03-16T06:05:13.751Z,57.20
2019-03-16T06:07:43.087Z,50.88
2019-03-16T06:10:13.115Z,49.67
2019-03-16T06:12:42.545Z,42.17
2019-03-16T06:15:12.215Z,40.78
2019-03-16T06:17:41.557Z,43.55
2019-03-16T06:20:13.340Z,33.53
2019-03-16T06:22:42.743Z,37.70
2019-03-16T06:25:12.185Z,30.15
2019-03-16T06:27:41.610Z,34.33
2019-03-16T06:30:13.580Z,32.80
2019-03-16T06:32:42.923Z,33.83
2019-03-16T06:35:24.051Z,23.27
2019-03-16T06:37:43.428Z,27.05
2019-03-16T06:40:12.931Z,26.27
2019-03-16T06:42:42.376Z,25.55
2019-03-16T06:45:12.450Z,31.90
2019-03-16T06:47:41.784Z,29.82
2019-03-16T06:50:12.998Z,30.77
2019-03-16T06:52:42.426Z,34.13
2019-03-16T06:55:12.004Z,27.07
2019-03-16T06:57:41.448Z,25.25
2019-03-16T07:00:13.133Z,29.25
2019-03-16T07:02:42.505Z,35.58
2019-03-16T07:05:13.032Z,26.50
2019-03-16T07:07:42.608Z,33.35
2019-03-16T07:10:13.190Z,33.78
2019-03-16T07:12:43.704Z,30.17
2019-03-16T07:15:14.291Z,29.27
2019-03-16T07:17:43.692Z,34.75
2019-03-16T07:20:14.604Z,34.80
2019-03-16T07:22:44.072Z,21.68
2019-03-16T07:25:13.752Z,28.55
2019-03-16T07:27:43.120Z,34.55
2019-03-16T07:30:14.270Z,31.05
2019-03-16T07:32:45.189Z,33.75
2019-03-16T07:35:14.579Z,34.63
2019-03-16T07:37:43.903Z,28.17
2019-03-16T07:40:16.167Z,32.33
2019-03-16T07:42:45.574Z,40.00
2019-03-16T07:45:14.988Z,34.53
2019-03-16T07:47:44.588Z,30.02
2019-03-16T07:50:14.343Z,32.93
2019-03-16T07:52:43.678Z,29.67
2019-03-16T07:55:13.143Z,30.90
2019-03-16T07:57:42.544Z,25.65
2019-03-16T08:00:12.810Z,27.82
2019-03-16T08:02:42.223Z,33.48
2019-03-16T08:05:18.519Z,36.95
2019-03-16T08:07:44.272Z,28.67
2019-03-16T08:10:13.963Z,32.38
2019-03-16T08:12:43.296Z,31.23
2019-03-16T08:15:13.130Z,27.75
2019-03-16T08:17:42.841Z,32.75
2019-03-16T08:20:12.747Z,29.63
2019-03-16T08:22:42.228Z,23.40
2019-03-16T08:25:13.479Z,26.75
2019-03-16T08:27:53.504Z,28.32
2019-03-16T08:30:14.251Z,33.35
2019-03-16T08:32:43.773Z,20.70
2019-03-16T08:35:13.363Z,26.35
2019-03-16T08:37:42.741Z,24.82
2019-03-16T08:40:12.547Z,19.10
2019-03-16T08:42:41.881Z,23.05
2019-03-16T08:45:12.715Z,21.52
2019-03-16T08:47:42.134Z,27.87
2019-03-16T08:50:12.043Z,28.10
2019-03-16T08:52:41.623Z,18.70
2019-03-16T08:55:11.240Z,19.05
2019-03-16T08:57:40.580Z,21.37
2019-03-16T09:00:14.645Z,22.67
2019-03-16T09:02:44.182Z,20.43
2019-03-16T09:05:15.259Z,19.77
2019-03-16T09:07:44.767Z,23.20
2019-03-16T09:10:14.290Z,19.92
2019-03-16T09:12:54.378Z,18.07
2019-03-16T09:15:16.423Z,17.90
2019-03-16T09:17:45.794Z,19.30
2019-03-16T09:20:15.245Z,23.42
2019-03-16T09:22:44.659Z,19.48
2019-03-16T09:25:14.100Z,17.12
2019-03-16T09:27:43.540Z,9.35
2019-03-16T09:30:16.332Z,12.50
2019-03-16T09:32:45.695Z,14.95
2019-03-16T09:35:15.163Z,12.58
2019-03-16T09:37:44.609Z,10.30
2019-03-16T09:40:14.340Z,18.12
2019-03-16T09:42:43.766Z,14.73
2019-03-16T09:45:13.883Z,16.75
2019-03-16T09:47:43.309Z,15.35
2019-03-16T09:50:14.462Z,15.93
2019-03-16T09:52:43.870Z,11.65
2019-03-16T09:55:13.720Z,13.78
2019-03-16T09:57:44.776Z,15.70
2019-03-16T10:00:17.807Z,11.50
2019-03-16T10:02:47.394Z,12.45
2019-03-16T10:05:16.884Z,16.62
2019-03-16T10:07:46.658Z,13.35
2019-03-16T10:10:16.414Z,13.85
2019-03-16T10:12:45.744Z,16.48
2019-03-16T10:15:15.428Z,13.05
2019-03-16T10:17:44.858Z,10.15
2019-03-16T10:20:16.744Z,14.30
2019-03-16T10:22:46.319Z,11.40
2019-03-16T10:25:16.811Z,11.65
2019-03-16T10:27:46.224Z,12.10
2019-03-16T10:30:15.784Z,13.62
2019-03-16T10:32:45.135Z,10.50
2019-03-16T10:35:14.708Z,17.15
2019-03-16T10:37:45.701Z,12.85
2019-03-16T10:40:15.239Z,13.93
2019-03-16T10:42:44.759Z,12.20
2019-03-16T10:45:14.235Z,13.93
2019-03-16T10:47:43.581Z,10.08
2019-03-16T10:50:14.125Z,11.05
2019-03-16T10:52:43.572Z,11.30
2019-03-16T10:55:13.074Z,16.30
2019-03-16T10:57:42.599Z,10.32
2019-03-16T11:00:14.296Z,13.48
2019-03-16T11:02:43.701Z,10.68
2019-03-16T11:05:13.267Z,15.50
2019-03-16T11:07:42.687Z,14.18
2019-03-16T11:10:13.595Z,14.47
2019-03-16T11:12:43.029Z,12.73
2019-03-16T11:15:13.828Z,13.18
2019-03-16T11:17:43.194Z,8.63
2019-03-16T11:20:17.224Z,9.70
2019-03-16T11:22:46.772Z,12.80
2019-03-16T11:25:16.342Z,12.00
2019-03-16T11:27:45.808Z,9.40
2019-03-16T11:30:16.449Z,11.18
2019-03-16T11:32:45.870Z,8.38
2019-03-16T11:35:15.287Z,11.25
2019-03-16T11:37:45.145Z,11.73
2019-03-16T11:40:18.959Z,9.03
2019-03-16T11:42:48.662Z,7.72
2019-03-16T11:45:18.029Z,10.35
2019-03-16T11:47:47.395Z,8.95
2019-03-16T11:50:17.199Z,7.12
2019-03-16T11:52:47.027Z,5.12
2019-03-16T11:55:16.457Z,5.45
2019-03-16T11:57:47.581Z,8.35
2019-03-16T12:00:17.315Z,4.70
2019-03-16T12:02:47.807Z,6.85
2019-03-16T12:05:17.189Z,7.30
2019-03-16T12:07:48.199Z,2.67
2019-03-16T12:10:17.712Z,5.85
2019-03-16T12:12:47.295Z,3.90
2019-03-16T12:15:18.274Z,3.55
2019-03-16T12:17:47.784Z,6.05
2019-03-16T12:20:18.713Z,6.90
2019-03-16T12:22:48.534Z,4.83
2019-03-16T12:25:18.054Z,7.12
2019-03-16T12:27:47.493Z,5.00
2019-03-16T12:30:17.183Z,5.80
2019-03-16T12:32:46.702Z,5.67
2019-03-16T12:35:16.164Z,4.28
2019-03-16T12:37:45.528Z,2.15
2019-03-16T12:40:15.632Z,4.95
2019-03-16T12:42:45.238Z,4.92
2019-03-16T12:45:15.831Z,4.67
2019-03-16T12:47:48.391Z,6.08
2019-03-16T12:50:17.905Z,5.70
2019-03-16T12:52:47.343Z,7.40
2019-03-16T12:55:16.884Z,6.75
2019-03-16T12:57:48.347Z,6.42
2019-03-16T13:00:19.423Z,4.12
2019-03-16T13:02:48.883Z,7.53
2019-03-16T13:05:18.342Z,5.92
2019-03-16T13:07:47.735Z,5.75
2019-03-16T13:10:18.606Z,7.55
2019-03-16T13:12:48.062Z,5.20
2019-03-16T13:15:17.536Z,7.22
2019-03-16T13:17:47.210Z,8.83
2019-03-16T13:20:17.316Z,4.53
2019-03-16T13:22:46.868Z,7.03
2019-03-16T13:25:18.027Z,7.53
2019-03-16T13:27:47.638Z,6.50
2019-03-16T13:30:21.179Z,10.72
2019-03-16T13:32:50.672Z,6.80
2019-03-16T13:35:20.184Z,8.78
2019-03-16T13:37:49.588Z,3.52
2019-03-16T13:40:19.603Z,4.45
2019-03-16T13:42:50.700Z,4.87
2019-03-16T13:45:21.620Z,9.73
2019-03-16T13:47:51.985Z,7.12
2019-03-16T13:50:21.887Z,9.90
2019-03-16T13:52:53.167Z,8.05
2019-03-16T13:55:22.541Z,8.23
2019-03-16T13:57:52.525Z,7.55
2019-03-16T14:00:22.270Z,7.05
2019-03-16T14:02:51.834Z,8.48
2019-03-16T14:05:21.275Z,8.48
2019-03-16T14:07:50.729Z,10.80
2019-03-16T14:10:23.301Z,4.85
2019-03-16T14:12:52.862Z,9.88
2019-03-16T14:15:22.357Z,9.38
2019-03-16T14:17:52.578Z,8.98
2019-03-16T14:20:22.304Z,5.05
2019-03-16T14:22:52.361Z,12.28
2019-03-16T14:25:21.710Z,8.23
2019-03-16T14:27:51.338Z,7.25
2019-03-16T14:30:39.492Z,9.70
2019-03-16T14:32:53.210Z,5.43
2019-03-16T14:35:22.794Z,5.97
2019-03-16T14:37:52.195Z,7.78
2019-03-16T14:40:21.623Z,6.95
2019-03-16T14:42:51.291Z,6.92
2019-03-16T14:45:24.136Z,5.40
2019-03-16T14:47:53.691Z,9.85
2019-03-16T14:50:25.371Z,8.40
2019-03-16T14:52:54.968Z,5.47
2019-03-16T14:55:26.102Z,17.62
2019-03-16T14:57:55.536Z,7.47
2019-03-16T15:00:37.348Z,8.80
2019-03-16T15:02:56.005Z,9.08
2019-03-16T15:05:25.426Z,8.73
2019-03-16T15:07:55.562Z,13.95
2019-03-16T15:10:24.934Z,7.12
2019-03-16T15:12:54.398Z,9.65
2019-03-16T15:15:23.823Z,8.90
2019-03-16T15:17:53.222Z,11.35
2019-03-16T15:20:22.700Z,6.40
2019-03-16T15:22:53.497Z,9.95
2019-03-16T15:25:23.298Z,12.50
2019-03-16T15:27:52.817Z,12.80
2019-03-16T15:30:22.688Z,16.50
2019-03-16T15:32:53.344Z,13.08
2019-03-16T15:35:22.933Z,12.37
2019-03-16T15:37:52.445Z,11.75
2019-03-16T15:40:21.881Z,7.75
2019-03-16T15:42:51.224Z,10.72
2019-03-16T15:45:28.800Z,9.53
2019-03-16T15:47:58.303Z,7.55
2019-03-16T15:50:27.753Z,9.10
2019-03-16T15:52:57.227Z,10.23
2019-03-16T15:55:26.703Z,7.92
2019-03-16T15:58:07.440Z,10.30
2019-03-16T16:00:27.334Z,9.90
2019-03-16T16:02:56.981Z,15.48
2019-03-16T16:05:26.539Z,13.10
2019-03-16T16:07:56.594Z,13.25
2019-03-16T16:10:25.987Z,13.13
2019-03-16T16:12:55.405Z,14.68
2019-03-16T16:15:24.855Z,12.18
2019-03-16T16:17:54.213Z,15.95
2019-03-16T16:20:23.863Z,12.03
2019-03-16T16:22:53.335Z,8.55
2019-03-16T16:25:23.085Z,15.65
2019-03-16T16:27:54.035Z,14.33
2019-03-16T16:30:23.441Z,13.85
2019-03-16T16:32:52.889Z,14.03
2019-03-16T16:35:22.265Z,11.53
2019-03-16T16:37:51.692Z,11.90
2019-03-16T16:40:21.479Z,13.98
2019-03-16T16:42:50.963Z,15.85
2019-03-16T16:45:20.380Z,12.85
2019-03-16T16:47:49.748Z,10.45
2019-03-16T16:50:26.348Z,10.88
2019-03-16T16:52:56.744Z,12.37
2019-03-16T16:55:26.178Z,13.60
2019-03-16T16:57:55.602Z,20.02
2019-03-16T17:00:27.542Z,16.17
2019-03-16T17:02:58.624Z,20.48
2019-03-16T17:05:27.979Z,15.10
2019-03-16T17:08:00.171Z,17.45
2019-03-16T17:10:31.314Z,16.70
2019-03-16T17:13:00.931Z,15.35
2019-03-16T17:15:30.364Z,15.95
2019-03-16T17:17:59.821Z,13.58
2019-03-16T17:20:29.292Z,15.13
2019-03-16T17:22:58.738Z,21.00
2019-03-16T17:25:28.108Z,12.15
2019-03-16T17:27:57.635Z,15.25
2019-03-16T17:30:29.541Z,18.10
2019-03-16T17:32:59.046Z,18.60
2019-03-16T17:35:30.031Z,13.72
2019-03-16T17:37:59.571Z,15.80
2019-03-16T17:40:29.017Z,18.15
2019-03-16T17:42:58.444Z,15.38
2019-03-16T17:45:27.822Z,18.05
2019-03-16T17:47:57.202Z,14.55
2019-03-16T17:50:26.585Z,15.78
2019-03-16T17:52:56.261Z,17.02
2019-03-16T17:55:25.768Z,15.72
2019-03-16T17:57:55.272Z,17.60
2019-03-16T18:00:24.745Z,19.10
2019-03-16T18:02:54.284Z,18.25
2019-03-16T18:05:23.745Z,20.27
2019-03-16T18:07:54.768Z,22.80
2019-03-16T18:10:24.174Z,16.73
2019-03-16T18:12:53.698Z,22.77
2019-03-16T18:15:23.270Z,29.30
2019-03-16T18:17:53.139Z,16.52
2019-03-16T18:20:22.596Z,19.73
2019-03-16T18:22:52.092Z,16.80
2019-03-16T18:25:21.454Z,19.60
2019-03-16T18:27:51.027Z,24.40
2019-03-16T18:30:21.940Z,19.30
2019-03-16T18:32:51.367Z,14.45
2019-03-16T18:35:22.528Z,17.32
2019-03-16T18:37:52.153Z,17.85
2019-03-16T18:40:21.679Z,17.12
2019-03-16T18:42:51.124Z,18.85
2019-03-16T18:45:30.052Z,15.15
2019-03-16T18:47:59.434Z,13.08
2019-03-16T18:50:28.958Z,17.70
2019-03-16T18:52:58.464Z,16.95
2019-03-16T18:55:27.848Z,16.52
2019-03-16T18:57:57.313Z,14.40
2019-03-16T19:00:26.759Z,15.90
2019-03-16T19:02:56.966Z,13.00
2019-03-16T19:05:26.439Z,17.23
2019-03-16T19:07:56.188Z,18.55
2019-03-16T19:10:25.687Z,19.15
2019-03-16T19:12:55.183Z,16.35
2019-03-16T19:15:24.637Z,16.42
2019-03-16T19:17:59.157Z,17.17
2019-03-16T19:20:25.321Z,18.32
2019-03-16T19:22:55.591Z,16.70
2019-03-16T19:25:25.046Z,17.92
2019-03-16T19:27:54.403Z,19.67
2019-03-16T19:30:23.853Z,14.35
2019-03-16T19:32:53.526Z,16.95
2019-03-16T19:35:23.023Z,21.17
2019-03-16T19:37:52.413Z,24.63
2019-03-16T19:40:23.056Z,21.05
2019-03-16T19:42:53.576Z,20.40
2019-03-16T19:45:22.942Z,12.53
2019-03-16T19:47:52.567Z,15.45
2019-03-16T19:50:22.133Z,15.90
2019-03-16T19:52:51.508Z,19.23
2019-03-16T19:55:21.004Z,14.33
2019-03-16T19:57:50.475Z,19.52
2019-03-16T20:00:19.978Z,15.03
2019-03-16T20:02:51.372Z,20.20
2019-03-16T20:05:21.800Z,20.50
2019-03-16T20:07:51.656Z,19.25
2019-03-16T20:10:21.805Z,21.10
2019-03-16T20:12:53.087Z,16.80
2019-03-16T20:15:22.566Z,19.52
2019-03-16T20:17:51.953Z,18.87
2019-03-16T20:20:21.370Z,18.67
2019-03-16T20:22:51.559Z,20.95
2019-03-16T20:25:21.081Z,12.30
2019-03-16T20:27:50.605Z,18.40
2019-03-16T20:30:26.858Z,20.77
2019-03-16T20:33:03.166Z,19.32
2019-03-16T20:35:23.655Z,22.80
2019-03-16T20:37:53.645Z,19.00
2019-03-16T20:40:23.024Z,21.48
2019-03-16T20:42:52.555Z,23.70
2019-03-16T20:45:23.174Z,21.02
2019-03-16T20:47:52.906Z,19.15
2019-03-16T20:50:22.506Z,24.23
2019-03-16T20:52:51.996Z,20.97
2019-03-16T20:55:21.929Z,20.97
2019-03-16T20:57:51.421Z,22.00
2019-03-16T21:00:21.042Z,19.85
2019-03-16T21:02:50.782Z,14.18
2019-03-16T21:05:20.442Z,20.88
2019-03-16T21:07:50.134Z,21.20
2019-03-16T21:10:19.427Z,24.65
2019-03-16T21:12:48.939Z,27.00
2019-03-16T21:15:19.123Z,19.00
2019-03-16T21:17:48.627Z,21.65
2019-03-16T21:20:19.915Z,20.50
2019-03-16T21:22:50.413Z,21.65
2019-03-16T21:25:20.995Z,24.27
2019-03-16T21:27:50.447Z,20.17
2019-03-16T21:30:23.053Z,20.85
2019-03-16T21:32:52.479Z,19.82
2019-03-16T21:35:21.941Z,21.12
2019-03-16T21:37:51.513Z,22.32
2019-03-16T21:40:23.665Z,21.75
2019-03-16T21:42:53.273Z,20.23
2019-03-16T21:45:22.791Z,20.43
2019-03-16T21:47:59.850Z,22.00
2019-03-16T21:50:23.379Z,18.00
2019-03-16T21:52:52.749Z,20.70
2019-03-16T21:55:22.159Z,22.48
2019-03-16T21:57:51.521Z,22.82
2019-03-16T22:00:21.037Z,26.85
2019-03-16T22:02:50.460Z,17.30
2019-03-16T22:05:19.914Z,23.12
2019-03-16T22:07:49.336Z,21.10
2019-03-16T22:10:18.884Z,25.32
2019-03-16T22:12:48.990Z,19.45
2019-03-16T22:15:18.422Z,18.57
2019-03-16T22:17:47.812Z,20.52
2019-03-16T22:20:21.264Z,20.00
2019-03-16T22:22:50.700Z,20.90
2019-03-16T22:25:20.198Z,16.35
2019-03-16T22:27:51.775Z,20.37
2019-03-16T22:30:20.794Z,19.98
2019-03-16T22:32:50.231Z,19.45
2019-03-16T22:35:19.734Z,21.50
2019-03-16T22:37:49.143Z,20.30
2019-03-16T22:40:18.480Z,21.57
2019-03-16T22:42:47.982Z,25.23
2019-03-16T22:45:17.498Z,16.42
2019-03-16T22:47:46.956Z,22.22
2019-03-16T22:50:20.952Z,21.48
2019-03-16T22:52:50.404Z,20.40
2019-03-16T22:55:19.893Z,19.02
2019-03-16T22:57:49.341Z,19.10
2019-03-16T23:00:23.964Z,19.25
2019-03-16T23:02:54.978Z,21.62
2019-03-16T23:05:24.420Z,23.18
2019-03-16T23:07:53.868Z,24.82
2019-03-16T23:10:23.254Z,22.30
2019-03-16T23:12:54.319Z,17.85
2019-03-16T23:15:25.418Z,17.55
2019-03-16T23:17:54.847Z,18.02
2019-03-16T23:20:24.276Z,21.77
2019-03-16T23:22:53.805Z,22.37
2019-03-16T23:25:23.167Z,15.28
2019-03-16T23:27:52.586Z,17.30
2019-03-16T23:30:22.056Z,16.27
2019-03-16T23:32:51.540Z,16.55
2019-03-16T23:35:21.607Z,19.55
2019-03-16T23:37:51.112Z,22.25
2019-03-16T23:40:20.695Z,25.12
2019-03-16T23:42:50.045Z,20.43
2019-03-16T23:45:19.425Z,20.88
2019-03-16T23:47:48.791Z,11.73
2019-03-16T23:50:18.361Z,16.62
2019-03-16T23:52:47.770Z,16.87
2019-03-16T23:55:18.302Z,12.85
2019-03-16T23:57:47.800Z,15.45
